createdAt,value
2023-05-12T00:02:03.248Z,99.90
2023-05-12T00:04:31.589Z,99.90
2023-05-12T00:07:00.903Z,99.90
2023-05-12T00:09:28.921Z,99.90
2023-05-12T00:11:57.125Z,99.90
2023-05-12T00:14:25.183Z,99.90
2023-05-12T00:16:53.172Z,99.90
2023-05-12T00:19:21.552Z,99.90
2023-05-12T00:21:49.463Z,99.90
2023-05-12T00:24:18.811Z,99.90
2023-05-12T00:26:46.732Z,99.90
2023-05-12T00:29:14.717Z,99.90
2023-05-12T00:31:42.715Z,99.90
2023-05-12T00:34:10.699Z,99.90
2023-05-12T00:36:38.685Z,99.90
2023-05-12T00:39:06.776Z,99.90
2023-05-12T00:41:36.619Z,99.90
2023-05-12T00:44:04.668Z,99.90
2023-05-12T00:46:32.632Z,99.90
2023-05-12T00:49:00.750Z,99.90
2023-05-12T00:51:29.124Z,99.90
2023-05-12T00:53:57.611Z,99.90
2023-05-12T00:56:26.399Z,99.90
2023-05-12T00:58:55.958Z,99.90
2023-05-12T01:01:24.023Z,99.90
2023-05-12T01:03:52.114Z,99.90
2023-05-12T01:06:23.295Z,99.90
2023-05-12T01:08:51.551Z,99.90
2023-05-12T01:11:19.567Z,99.90
2023-05-12T01:13:47.526Z,99.90
2023-05-12T01:16:18.301Z,99.90
2023-05-12T01:18:49.949Z,99.90
2023-05-12T01:21:19.002Z,99.90
2023-05-12T01:23:49.938Z,99.90
2023-05-12T01:26:19.403Z,99.90
2023-05-12T01:28:48.286Z,99.90
2023-05-12T01:31:17.123Z,99.90
2023-05-12T01:33:46.245Z,99.90
2023-05-12T01:36:14.245Z,99.90
2023-05-12T01:38:56.114Z,99.90
2023-05-12T01:41:25.500Z,99.90
2023-05-12T01:43:53.437Z,99.90
2023-05-12T01:46:21.424Z,99.90
2023-05-12T01:48:49.418Z,99.90
2023-05-12T01:51:17.405Z,99.90
2023-05-12T01:53:45.422Z,99.90
2023-05-12T01:56:13.770Z,99.90
2023-05-12T01:58:43.177Z,99.90
2023-05-12T02:01:11.203Z,99.90
2023-05-12T02:03:39.448Z,99.90
2023-05-12T02:06:07.570Z,99.90
2023-05-12T02:08:36.076Z,99.90
2023-05-12T02:11:07.340Z,99.90
2023-05-12T02:13:35.448Z,99.90
2023-05-12T02:16:05.177Z,99.90
2023-05-12T02:18:33.272Z,99.90
2023-05-12T02:21:01.347Z,99.90
2023-05-12T02:23:29.309Z,99.90
2023-05-12T02:25:57.290Z,99.90
2023-05-12T02:28:25.252Z,99.90
2023-05-12T02:30:53.257Z,99.90
2023-05-12T02:33:22.965Z,99.90
2023-05-12T02:35:51.024Z,99.90
2023-05-12T02:38:19.160Z,99.90
2023-05-12T02:40:47.568Z,99.90
2023-05-12T02:43:15.718Z,99.90
2023-05-12T02:45:43.875Z,99.90
2023-05-12T02:48:12.037Z,99.90
2023-05-12T02:50:41.784Z,99.90
2023-05-12T02:53:09.874Z,99.90
2023-05-12T02:55:37.861Z,99.90
2023-05-12T02:58:05.854Z,99.90
2023-05-12T03:00:33.814Z,99.90
2023-05-12T03:03:01.834Z,99.90
2023-05-12T03:05:30.007Z,99.90
2023-05-12T03:07:59.557Z,99.90
2023-05-12T03:10:27.497Z,99.90
2023-05-12T03:12:55.443Z,99.90
2023-05-12T03:15:23.486Z,99.90
2023-05-12T03:17:51.592Z,99.90
2023-05-12T03:20:20.316Z,99.90
2023-05-12T03:22:48.511Z,99.90
2023-05-12T03:25:20.945Z,99.90
2023-05-12T03:27:48.977Z,99.90
2023-05-12T03:30:17.081Z,99.90
2023-05-12T03:32:46.251Z,99.90
2023-05-12T03:35:14.325Z,99.90
2023-05-12T03:37:42.288Z,99.90
2023-05-12T03:40:11.155Z,99.90
2023-05-12T03:42:40.511Z,99.90
2023-05-12T03:45:09.283Z,99.90
2023-05-12T03:47:37.429Z,99.90
2023-05-12T03:50:06.441Z,99.90
2023-05-12T03:52:34.441Z,99.90
2023-05-12T03:55:02.408Z,99.90
2023-05-12T03:57:30.365Z,99.90
2023-05-12T03:59:59.720Z,99.90
2023-05-12T04:02:27.932Z,99.90
2023-05-12T04:04:55.893Z,99.90
2023-05-12T04:07:23.894Z,99.90
2023-05-12T04:09:51.854Z,99.90
2023-05-12T04:12:19.847Z,99.90
2023-05-12T04:14:48.217Z,99.90
2023-05-12T04:17:18.689Z,99.90
2023-05-12T04:19:47.067Z,99.90
2023-05-12T04:22:15.061Z,99.90
2023-05-12T04:24:43.049Z,99.90
2023-05-12T04:27:11.020Z,99.90
2023-05-12T04:29:39.274Z,99.90
2023-05-12T04:32:07.662Z,99.90
2023-05-12T04:34:37.136Z,99.90
2023-05-12T04:37:06.985Z,99.90
2023-05-12T04:39:34.954Z,99.90
2023-05-12T04:42:03.004Z,99.90
2023-05-12T04:44:30.949Z,99.90
2023-05-12T04:46:58.937Z,99.90
2023-05-12T04:49:26.853Z,99.90
2023-05-12T04:51:56.210Z,99.90
2023-05-12T04:54:24.907Z,99.90
2023-05-12T04:56:52.867Z,99.90
2023-05-12T04:59:20.853Z,99.90
2023-05-12T05:01:48.970Z,99.90
2023-05-12T05:04:16.999Z,99.90
2023-05-12T05:06:45.004Z,99.90
2023-05-12T05:09:14.374Z,99.90
2023-05-12T05:11:42.332Z,99.90
2023-05-12T05:14:10.441Z,99.90
2023-05-12T05:16:38.455Z,99.90
2023-05-12T05:19:09.413Z,99.90
2023-05-12T05:21:47.427Z,99.90
2023-05-12T05:24:16.768Z,99.90
2023-05-12T05:26:45.653Z,99.90
2023-05-12T05:29:13.706Z,99.90
2023-05-12T05:31:41.713Z,99.90
2023-05-12T05:34:09.710Z,99.90
2023-05-12T05:36:37.713Z,99.90
2023-05-12T05:39:05.903Z,99.90
2023-05-12T05:41:35.412Z,99.90
2023-05-12T05:44:03.380Z,99.90
2023-05-12T05:46:31.670Z,99.90
2023-05-12T05:48:59.641Z,99.90
2023-05-12T05:51:27.600Z,99.90
2023-05-12T05:53:55.555Z,99.90
2023-05-12T05:56:24.127Z,99.90
2023-05-12T05:58:53.473Z,99.90
2023-05-12T06:01:21.503Z,99.90
2023-05-12T06:03:49.587Z,99.90
2023-05-12T06:06:18.168Z,99.90
2023-05-12T06:08:46.483Z,99.90
2023-05-12T06:11:15.926Z,99.90
2023-05-12T06:13:45.187Z,99.90
2023-05-12T06:16:14.555Z,99.90
2023-05-12T06:18:42.799Z,99.90
2023-05-12T06:21:10.930Z,99.90
2023-05-12T06:23:38.966Z,99.90
2023-05-12T06:26:07.756Z,99.90
2023-05-12T06:28:35.751Z,99.90
2023-05-12T06:31:03.714Z,99.90
2023-05-12T06:33:33.076Z,99.90
2023-05-12T06:36:01.051Z,99.90
2023-05-12T06:38:29.047Z,99.90
2023-05-12T06:40:57.013Z,99.90
2023-05-12T06:43:25.076Z,99.90
2023-05-12T06:45:53.150Z,99.90
2023-05-12T06:48:21.687Z,99.90
2023-05-12T06:50:51.034Z,99.90
2023-05-12T06:53:18.990Z,99.90
2023-05-12T06:55:47.235Z,99.90
2023-05-12T06:58:15.211Z,99.90
2023-05-12T07:00:43.267Z,99.90
2023-05-12T07:03:11.307Z,99.90
2023-05-12T07:05:39.661Z,99.90
2023-05-12T07:08:09.031Z,99.90
2023-05-12T07:10:37.999Z,99.90
2023-05-12T07:13:06.075Z,99.90
2023-05-12T07:15:34.191Z,99.90
2023-05-12T07:18:02.201Z,99.90
2023-05-12T07:20:30.295Z,99.90
2023-05-12T07:22:58.356Z,99.90
2023-05-12T07:25:28.220Z,99.90
2023-05-12T07:27:56.265Z,99.90
2023-05-12T07:30:24.242Z,99.90
2023-05-12T07:32:52.948Z,99.90
2023-05-12T07:35:21.184Z,99.90
2023-05-12T07:37:49.383Z,99.90
2023-05-12T07:40:17.419Z,99.90
2023-05-12T07:42:46.711Z,99.90
2023-05-12T07:45:14.749Z,99.90
2023-05-12T07:47:42.826Z,99.90
2023-05-12T07:50:11.137Z,99.90
2023-05-12T07:52:46.816Z,99.90
2023-05-12T07:55:15.428Z,99.90
2023-05-12T07:57:43.530Z,99.90
2023-05-12T08:00:14.393Z,99.90
2023-05-12T08:02:42.936Z,99.90
2023-05-12T08:05:11.021Z,99.90
2023-05-12T08:07:41.105Z,99.90
2023-05-12T08:10:10.290Z,99.90
2023-05-12T08:12:38.249Z,99.90
2023-05-12T08:15:06.630Z,99.90
2023-05-12T08:17:36.376Z,99.90
2023-05-12T08:20:05.184Z,99.90
2023-05-12T08:22:33.861Z,99.90
2023-05-12T08:25:01.868Z,99.90
2023-05-12T08:27:30.532Z,99.90
2023-05-12T08:29:58.975Z,99.90
2023-05-12T08:32:27.057Z,99.90
2023-05-12T08:34:56.484Z,99.90
2023-05-12T08:37:24.498Z,99.90
2023-05-12T08:39:52.797Z,99.90
2023-05-12T08:42:28.629Z,99.90
2023-05-12T08:44:56.710Z,99.90
2023-05-12T08:47:25.798Z,99.90
2023-05-12T08:49:59.561Z,99.90
2023-05-12T08:52:30.414Z,99.90
2023-05-12T08:54:59.470Z,99.90
2023-05-12T08:57:29.554Z,99.90
2023-05-12T08:59:59.435Z,99.90
2023-05-12T09:02:37.718Z,99.90
2023-05-12T09:05:09.886Z,99.90
2023-05-12T09:07:40.771Z,99.90
2023-05-12T09:10:22.532Z,99.90
2023-05-12T09:13:03.524Z,99.90
2023-05-12T09:15:35.056Z,99.90
2023-05-12T09:18:03.104Z,99.90
2023-05-12T09:20:32.152Z,99.90
2023-05-12T09:23:15.274Z,99.90
2023-05-12T09:25:44.792Z,99.90
2023-05-12T09:28:12.930Z,99.90
2023-05-12T09:30:42.535Z,99.90
2023-05-12T09:33:11.784Z,99.90
2023-05-12T09:35:40.634Z,99.90
2023-05-12T09:38:09.250Z,99.90
2023-05-12T09:40:37.538Z,99.90
2023-05-12T09:43:08.174Z,99.90
2023-05-12T09:45:37.101Z,99.90
2023-05-12T09:48:12.007Z,99.90
2023-05-12T09:50:48.088Z,99.90
2023-05-12T09:53:17.475Z,99.90
2023-05-12T09:55:45.725Z,99.90
2023-05-12T09:58:16.091Z,99.90
2023-05-12T10:01:12.907Z,99.90
2023-05-12T10:03:33.075Z,99.90
2023-05-12T10:06:02.535Z,99.90
2023-05-12T10:08:32.879Z,99.90
2023-05-12T10:11:01.091Z,99.90
2023-05-12T10:13:30.821Z,99.90
2023-05-12T10:15:59.551Z,99.90
2023-05-12T10:18:27.629Z,99.90
2023-05-12T10:20:57.233Z,99.90
2023-05-12T10:23:26.889Z,99.90
2023-05-12T10:25:58.499Z,99.90
2023-05-12T10:28:26.498Z,99.90
2023-05-12T10:30:56.174Z,99.90
2023-05-12T10:33:24.210Z,99.90
2023-05-12T10:35:52.758Z,99.90
2023-05-12T10:38:21.000Z,99.90
2023-05-12T10:40:55.797Z,99.90
2023-05-12T10:43:24.846Z,99.90
2023-05-12T10:46:10.076Z,99.90
2023-05-12T10:48:39.069Z,99.90
2023-05-12T10:51:08.050Z,99.90
2023-05-12T10:53:48.704Z,99.90
2023-05-12T10:56:22.806Z,99.90
2023-05-12T10:59:12.080Z,99.90
2023-05-12T11:01:43.162Z,99.90
2023-05-12T11:04:13.139Z,99.90
2023-05-12T11:06:42.934Z,99.90
2023-05-12T11:09:13.148Z,99.90
2023-05-12T11:11:41.658Z,99.90
2023-05-12T11:14:10.364Z,99.90
2023-05-12T11:16:44.380Z,99.90
2023-05-12T11:19:12.850Z,99.90
2023-05-12T11:21:41.119Z,99.90
2023-05-12T11:24:13.147Z,99.90
2023-05-12T11:26:41.628Z,99.90
2023-05-12T11:29:09.634Z,99.90
2023-05-12T11:31:38.033Z,99.90
2023-05-12T11:34:13.029Z,99.90
2023-05-12T11:36:46.687Z,99.90
2023-05-12T11:39:15.238Z,99.90
2023-05-12T11:41:43.200Z,99.90
2023-05-12T11:44:14.730Z,99.90
2023-05-12T11:46:42.681Z,99.90
2023-05-12T11:49:13.216Z,99.90
2023-05-12T11:51:44.230Z,99.90
2023-05-12T11:54:12.237Z,99.90
2023-05-12T11:56:40.189Z,99.90
2023-05-12T11:59:08.198Z,99.90
2023-05-12T12:01:44.955Z,99.90
2023-05-12T12:04:14.644Z,99.90
2023-05-12T12:06:46.022Z,99.90
2023-05-12T12:09:14.146Z,99.90
2023-05-12T12:11:42.067Z,99.90
2023-05-12T12:14:10.044Z,99.90
2023-05-12T12:16:38.125Z,99.90
2023-05-12T12:19:07.383Z,99.90
2023-05-12T12:21:36.819Z,99.90
2023-05-12T12:24:06.258Z,99.90
2023-05-12T12:26:34.249Z,99.90
2023-05-12T12:29:02.211Z,99.90
2023-05-12T12:31:30.253Z,99.90
2023-05-12T12:33:59.112Z,99.90
2023-05-12T12:36:27.106Z,99.90
2023-05-12T12:38:56.437Z,99.90
2023-05-12T12:41:24.408Z,99.90
2023-05-12T12:43:52.530Z,99.90
2023-05-12T12:46:20.596Z,99.90
2023-05-12T12:48:48.929Z,99.90
2023-05-12T12:51:16.926Z,99.90
2023-05-12T12:53:45.696Z,99.90
2023-05-12T12:56:15.409Z,99.90
2023-05-12T12:58:43.407Z,99.90
2023-05-12T13:01:11.480Z,99.90
2023-05-12T13:03:40.533Z,99.90
2023-05-12T13:06:09.223Z,99.90
2023-05-12T13:08:37.174Z,99.90
2023-05-12T13:11:05.378Z,99.90
2023-05-12T13:13:34.661Z,99.90
2023-05-12T13:16:03.253Z,99.90
2023-05-12T13:18:31.230Z,99.90
2023-05-12T13:20:59.392Z,99.90
2023-05-12T13:23:27.366Z,99.90
2023-05-12T13:25:55.442Z,99.90
2023-05-12T13:28:23.482Z,99.90
2023-05-12T13:30:53.863Z,99.90
2023-05-12T13:33:22.213Z,99.90
2023-05-12T13:35:50.154Z,99.90
2023-05-12T13:38:19.061Z,99.90
2023-05-12T13:40:47.136Z,99.90
2023-05-12T13:43:15.283Z,99.90
2023-05-12T13:45:43.393Z,99.90
2023-05-12T13:48:12.855Z,99.90
2023-05-12T13:50:41.165Z,99.90
2023-05-12T13:53:09.104Z,99.90
2023-05-12T13:55:40.612Z,99.90
2023-05-12T13:58:08.978Z,99.90
2023-05-12T14:00:37.007Z,99.90
2023-05-12T14:03:05.079Z,99.90
2023-05-12T14:05:34.528Z,99.90
2023-05-12T14:08:02.488Z,99.90
2023-05-12T14:10:30.436Z,99.90
2023-05-12T14:12:58.373Z,99.90
2023-05-12T14:15:36.481Z,99.90
2023-05-12T14:18:14.222Z,99.90
2023-05-12T14:20:44.267Z,99.90
2023-05-12T14:23:12.334Z,99.90
2023-05-12T14:25:40.281Z,99.90
2023-05-12T14:28:08.394Z,99.90
2023-05-12T14:30:37.442Z,99.90
2023-05-12T14:33:05.620Z,99.90
2023-05-12T14:35:33.618Z,99.90
2023-05-12T14:38:02.957Z,99.90
2023-05-12T14:40:30.968Z,99.90
2023-05-12T14:42:59.706Z,99.90
2023-05-12T14:45:28.391Z,99.90
2023-05-12T14:47:56.509Z,99.90
2023-05-12T14:50:24.612Z,99.90
2023-05-12T14:52:52.686Z,99.90
2023-05-12T14:55:22.398Z,99.90
2023-05-12T14:57:50.658Z,99.90
2023-05-12T15:00:19.062Z,99.90
2023-05-12T15:02:47.234Z,99.90
2023-05-12T15:05:15.535Z,99.90
2023-05-12T15:07:43.545Z,99.90
2023-05-12T15:10:12.013Z,99.90
2023-05-12T15:12:41.354Z,99.90
2023-05-12T15:15:11.582Z,99.90
2023-05-12T15:17:39.808Z,99.90
2023-05-12T15:20:09.829Z,99.90
2023-05-12T15:22:37.795Z,99.90
2023-05-12T15:25:06.218Z,99.90
2023-05-12T15:27:34.255Z,99.90
2023-05-12T15:30:03.760Z,99.90
2023-05-12T15:32:32.119Z,99.30
2023-05-12T15:35:00.134Z,99.20
2023-05-12T15:37:28.178Z,98.00
2023-05-12T15:39:56.222Z,96.60
2023-05-12T15:42:30.103Z,96.70
2023-05-12T15:45:01.072Z,96.50
2023-05-12T15:47:30.709Z,94.90
2023-05-12T15:49:58.702Z,94.50
2023-05-12T15:52:27.753Z,93.40
2023-05-12T15:54:55.758Z,93.70
2023-05-12T15:57:23.757Z,94.20
2023-05-12T15:59:52.114Z,93.90
2023-05-12T16:02:20.193Z,94.40
2023-05-12T16:04:49.529Z,93.80
2023-05-12T16:07:17.547Z,93.30
2023-05-12T16:09:45.585Z,93.60
2023-05-12T16:12:15.215Z,93.90
2023-05-12T16:14:43.195Z,94.40
2023-05-12T16:17:11.150Z,94.40
2023-05-12T16:19:39.093Z,94.60
2023-05-12T16:22:08.737Z,95.10
2023-05-12T16:24:37.412Z,95.40
2023-05-12T16:27:05.608Z,95.40
2023-05-12T16:29:33.651Z,95.50
2023-05-12T16:32:01.732Z,95.20
2023-05-12T16:34:29.730Z,95.90
2023-05-12T16:36:57.723Z,95.70
2023-05-12T16:39:27.063Z,96.00
2023-05-12T16:41:55.873Z,96.40
2023-05-12T16:44:23.865Z,95.60
2023-05-12T16:46:51.868Z,95.20
2023-05-12T16:49:19.829Z,94.80
2023-05-12T16:51:47.814Z,94.90
2023-05-12T16:54:15.846Z,95.40
2023-05-12T16:56:45.323Z,95.20
2023-05-12T16:59:13.497Z,95.40
2023-05-12T17:01:41.512Z,95.20
2023-05-12T17:04:11.882Z,95.50
2023-05-12T17:06:39.866Z,95.90
2023-05-12T17:09:07.821Z,95.90
2023-05-12T17:11:36.653Z,95.40
2023-05-12T17:14:06.048Z,96.50
2023-05-12T17:16:34.155Z,95.90
2023-05-12T17:21:33.732Z,96.20
2023-05-12T17:24:01.781Z,95.80
2023-05-12T17:26:29.928Z,96.40
2023-05-12T17:28:57.916Z,95.30
2023-05-12T17:31:27.638Z,96.30
2023-05-12T17:33:55.740Z,96.80
2023-05-12T17:36:23.725Z,97.10
2023-05-12T17:38:52.101Z,96.90
2023-05-12T17:41:20.194Z,96.90
2023-05-12T17:43:48.275Z,96.70
2023-05-12T17:46:16.672Z,97.50
2023-05-12T17:48:46.389Z,97.10
2023-05-12T17:51:14.478Z,96.90
2023-05-12T17:53:42.471Z,96.80
2023-05-12T17:56:10.493Z,96.80
2023-05-12T17:58:38.534Z,96.60
2023-05-12T18:01:06.602Z,96.90
2023-05-12T18:03:35.621Z,97.00
2023-05-12T18:06:05.764Z,97.10
2023-05-12T18:08:33.748Z,96.90
2023-05-12T18:11:01.768Z,97.30
2023-05-12T18:13:29.749Z,96.80
2023-05-12T18:15:57.726Z,97.20
2023-05-12T18:18:26.207Z,97.50
2023-05-12T18:20:54.297Z,97.40
2023-05-12T18:23:23.663Z,97.80
2023-05-12T18:25:51.719Z,98.00
2023-05-12T18:28:19.704Z,98.00
2023-05-12T18:30:47.746Z,98.20
2023-05-12T18:33:16.198Z,98.50
2023-05-12T18:35:44.276Z,98.60
2023-05-12T18:38:12.457Z,99.30
2023-05-12T18:40:41.778Z,99.20
2023-05-12T18:43:09.969Z,99.50
2023-05-12T18:45:38.131Z,99.50
2023-05-12T18:48:06.257Z,99.50
2023-05-12T18:50:34.268Z,99.60
2023-05-12T18:53:02.227Z,99.60
2023-05-12T18:55:30.244Z,99.80
2023-05-12T18:57:59.594Z,99.80
2023-05-12T19:00:31.921Z,99.90
2023-05-12T19:03:00.101Z,99.90
2023-05-12T19:05:28.247Z,99.90
2023-05-12T19:07:56.346Z,99.90
2023-05-12T19:10:24.317Z,99.90
2023-05-12T19:12:52.301Z,99.90
2023-05-12T19:15:22.078Z,99.90
2023-05-12T19:17:50.377Z,99.90
2023-05-12T19:20:18.530Z,99.90
2023-05-12T19:22:46.552Z,99.90
2023-05-12T19:25:17.847Z,99.90
2023-05-12T19:27:46.146Z,99.90
2023-05-12T19:30:14.892Z,99.90
2023-05-12T19:32:45.999Z,99.90
2023-05-12T19:35:15.562Z,99.90
2023-05-12T19:37:43.883Z,99.90
2023-05-12T19:40:12.451Z,99.90
2023-05-12T19:42:42.234Z,99.90
2023-05-12T19:45:10.646Z,99.90
2023-05-12T19:47:38.713Z,99.90
2023-05-12T19:50:09.161Z,99.90
2023-05-12T19:52:37.323Z,99.90
2023-05-12T19:55:05.724Z,99.90
2023-05-12T19:57:33.669Z,99.90
2023-05-12T20:00:01.677Z,99.90
2023-05-12T20:02:31.034Z,99.90
2023-05-12T20:05:00.049Z,99.90
2023-05-12T20:07:29.516Z,99.90
2023-05-12T20:09:57.505Z,99.90
2023-05-12T20:12:25.499Z,99.90
2023-05-12T20:14:53.585Z,99.90
2023-05-12T20:17:21.578Z,99.90
2023-05-12T20:19:49.634Z,99.90
2023-05-12T20:22:17.645Z,99.90
2023-05-12T20:24:46.986Z,99.90
2023-05-12T20:27:14.990Z,99.90
2023-05-12T20:29:42.952Z,99.90
2023-05-12T20:32:12.891Z,99.90
2023-05-12T20:34:42.328Z,99.90
2023-05-12T20:37:10.375Z,99.90
2023-05-12T20:39:38.460Z,99.90
2023-05-12T20:42:08.741Z,99.90
2023-05-12T20:44:36.766Z,99.90
2023-05-12T20:47:04.823Z,99.90
2023-05-12T20:49:32.808Z,99.90
2023-05-12T20:52:00.820Z,99.90
2023-05-12T20:54:28.788Z,99.90
2023-05-12T20:56:56.738Z,99.90
2023-05-12T20:59:26.066Z,99.90
2023-05-12T21:01:54.051Z,99.90
2023-05-12T21:04:22.141Z,99.90
2023-05-12T21:06:51.542Z,99.90
2023-05-12T21:09:21.256Z,99.90
2023-05-12T21:11:49.213Z,99.90
2023-05-12T21:14:17.143Z,99.90
2023-05-12T21:16:46.589Z,99.90
2023-05-12T21:19:14.666Z,99.90
2023-05-12T21:21:42.648Z,99.90
2023-05-12T21:24:10.975Z,99.90
2023-05-12T21:26:39.091Z,99.90
2023-05-12T21:29:07.099Z,99.90
2023-05-12T21:31:35.152Z,99.90
2023-05-12T21:34:04.582Z,99.90
2023-05-12T21:36:33.678Z,99.90
2023-05-12T21:39:01.671Z,99.90
2023-05-12T21:41:30.213Z,99.90
2023-05-12T21:43:58.213Z,99.90
2023-05-12T21:46:26.219Z,99.90
2023-05-12T21:48:54.196Z,99.90
2023-05-12T21:51:23.552Z,99.90
2023-05-12T21:53:51.560Z,99.90
2023-05-12T21:56:19.642Z,99.90
2023-05-12T21:58:48.036Z,99.90
2023-05-12T22:01:16.505Z,99.90
2023-05-12T22:03:44.537Z,99.90
2023-05-12T22:06:12.949Z,99.90
2023-05-12T22:08:42.330Z,99.90
2023-05-12T22:11:10.491Z,99.90
2023-05-12T22:13:38.490Z,99.90
2023-05-12T22:16:06.782Z,99.90
2023-05-12T22:18:35.605Z,99.90
2023-05-12T22:21:03.774Z,99.90
2023-05-12T22:23:31.880Z,99.90
2023-05-12T22:26:01.611Z,99.90
2023-05-12T22:28:29.577Z,99.90
2023-05-12T22:30:57.752Z,99.90
2023-05-12T22:33:25.899Z,99.90
2023-05-12T22:35:53.917Z,99.90
2023-05-12T22:38:21.899Z,99.90
2023-05-12T22:40:49.875Z,99.90
2023-05-12T22:43:19.337Z,99.90
2023-05-12T22:45:50.293Z,99.90
2023-05-12T22:48:18.441Z,99.90
2023-05-12T22:50:46.563Z,99.90
2023-05-12T22:53:14.680Z,99.90
2023-05-12T22:55:42.740Z,99.90
2023-05-12T22:58:11.665Z,99.90
2023-05-12T23:00:41.051Z,99.90
2023-05-12T23:03:09.290Z,99.90
2023-05-12T23:05:37.297Z,99.90
2023-05-12T23:08:05.608Z,99.90
2023-05-12T23:10:33.565Z,99.90
2023-05-12T23:13:01.551Z,99.90
2023-05-12T23:15:29.506Z,99.90
2023-05-12T23:17:58.943Z,99.90
2023-05-12T23:20:26.952Z,99.90
2023-05-12T23:22:54.961Z,99.90
2023-05-12T23:25:22.941Z,99.90
2023-05-12T23:27:51.038Z,99.90
2023-05-12T23:30:19.193Z,99.90
2023-05-12T23:32:50.261Z,99.90
2023-05-12T23:35:19.761Z,99.90
2023-05-12T23:37:47.772Z,99.90
2023-05-12T23:40:15.771Z,99.90
2023-05-12T23:42:43.803Z,99.90
2023-05-12T23:45:12.349Z,99.90
2023-05-12T23:47:40.367Z,99.90
2023-05-12T23:50:08.953Z,99.90
2023-05-12T23:52:38.404Z,99.90
2023-05-12T23:55:06.758Z,99.90
2023-05-12T23:57:34.767Z,99.90
